sensor_id;sensor_type;location;lat;lon;timestamp;P1;durP1;ratioP1;P2;durP2;ratioP2
39524;SDS011;25203;50.754;6.978;2022-12-04T00:01:17;28.23;;;15.57;;
39524;SDS011;25203;50.754;6.978;2022-12-04T00:03:19;29.27;;;17.10;;
39524;SDS011;25203;50.754;6.978;2022-12-04T00:08:26;35.40;;;18.70;;
39524;SDS011;25203;50.754;6.978;2022-12-04T00:16:22;33.53;;;18.52;;
39524;SDS011;25203;50.754;6.978;2022-12-04T00:18:25;28.23;;;16.00;;
39524;SDS011;25203;50.754;6.978;2022-12-04T00:20:37;31.45;;;18.08;;
39524;SDS011;25203;50.754;6.978;2022-12-04T00:22:39;27.92;;;16.92;;
39524;SDS011;25203;50.754;6.978;2022-12-04T00:24:39;29.20;;;16.25;;
39524;SDS011;25203;50.754;6.978;2022-12-04T00:41:32;20.45;;;12.43;;
39524;SDS011;25203;50.754;6.978;2022-12-04T00:43:32;23.23;;;13.25;;
39524;SDS011;25203;50.754;6.978;2022-12-04T00:45:33;24.60;;;12.60;;
39524;SDS011;25203;50.754;6.978;2022-12-04T00:47:33;22.98;;;12.40;;
39524;SDS011;25203;50.754;6.978;2022-12-04T00:49:34;22.42;;;11.77;;
39524;SDS011;25203;50.754;6.978;2022-12-04T00:51:35;18.02;;;11.20;;
39524;SDS011;25203;50.754;6.978;2022-12-04T00:53:35;19.60;;;12.20;;
39524;SDS011;25203;50.754;6.978;2022-12-04T00:55:37;17.77;;;10.68;;
39524;SDS011;25203;50.754;6.978;2022-12-04T00:57:39;17.63;;;10.98;;
39524;SDS011;25203;50.754;6.978;2022-12-04T00:59:39;16.15;;;10.45;;
39524;SDS011;25203;50.754;6.978;2022-12-04T01:01:40;15.35;;;9.82;;
39524;SDS011;25203;50.754;6.978;2022-12-04T01:03:41;20.52;;;11.05;;
39524;SDS011;25203;50.754;6.978;2022-12-04T01:05:43;16.85;;;9.93;;
39524;SDS011;25203;50.754;6.978;2022-12-04T01:07:44;16.13;;;10.80;;
39524;SDS011;25203;50.754;6.978;2022-12-04T01:09:45;21.92;;;11.55;;
39524;SDS011;25203;50.754;6.978;2022-12-04T01:12:23;18.20;;;10.68;;
39524;SDS011;25203;50.754;6.978;2022-12-04T01:14:23;19.05;;;10.85;;
39524;SDS011;25203;50.754;6.978;2022-12-04T01:28:18;23.50;;;12.80;;
39524;SDS011;25203;50.754;6.978;2022-12-04T01:30:19;21.92;;;12.15;;
39524;SDS011;25203;50.754;6.978;2022-12-04T01:32:28;19.42;;;11.07;;
39524;SDS011;25203;50.754;6.978;2022-12-04T01:34:29;20.80;;;12.77;;
39524;SDS011;25203;50.754;6.978;2022-12-04T01:36:29;18.98;;;11.85;;
39524;SDS011;25203;50.754;6.978;2022-12-04T01:44:09;18.53;;;11.87;;
39524;SDS011;25203;50.754;6.978;2022-12-04T02:00:42;21.35;;;12.68;;
39524;SDS011;25203;50.754;6.978;2022-12-04T02:02:44;21.73;;;12.50;;
39524;SDS011;25203;50.754;6.978;2022-12-04T02:07:43;20.83;;;12.35;;
39524;SDS011;25203;50.754;6.978;2022-12-04T02:09:46;24.98;;;13.98;;
39524;SDS011;25203;50.754;6.978;2022-12-04T02:26:48;23.73;;;13.43;;
39524;SDS011;25203;50.754;6.978;2022-12-04T02:28:56;20.77;;;12.35;;
39524;SDS011;25203;50.754;6.978;2022-12-04T02:31:00;22.05;;;13.00;;
39524;SDS011;25203;50.754;6.978;2022-12-04T02:33:04;22.75;;;13.77;;
39524;SDS011;25203;50.754;6.978;2022-12-04T02:56:08;18.50;;;11.25;;
39524;SDS011;25203;50.754;6.978;2022-12-04T02:58:38;17.83;;;10.70;;
39524;SDS011;25203;50.754;6.978;2022-12-04T03:03:36;18.60;;;10.32;;
39524;SDS011;25203;50.754;6.978;2022-12-04T03:05:42;17.70;;;11.25;;
39524;SDS011;25203;50.754;6.978;2022-12-04T03:08:07;17.13;;;11.85;;
39524;SDS011;25203;50.754;6.978;2022-12-04T03:12:52;18.25;;;10.98;;
39524;SDS011;25203;50.754;6.978;2022-12-04T03:15:02;16.23;;;10.35;;
39524;SDS011;25203;50.754;6.978;2022-12-04T03:20:07;17.40;;;10.40;;
39524;SDS011;25203;50.754;6.978;2022-12-04T03:22:12;17.95;;;10.30;;
39524;SDS011;25203;50.754;6.978;2022-12-04T03:24:19;19.27;;;11.80;;
39524;SDS011;25203;50.754;6.978;2022-12-04T03:35:18;14.98;;;9.32;;
39524;SDS011;25203;50.754;6.978;2022-12-04T03:37:49;15.13;;;9.20;;
39524;SDS011;25203;50.754;6.978;2022-12-04T03:42:47;15.00;;;9.15;;
39524;SDS011;25203;50.754;6.978;2022-12-04T03:47:58;16.10;;;9.85;;
39524;SDS011;25203;50.754;6.978;2022-12-04T03:50:09;16.60;;;10.20;;
39524;SDS011;25203;50.754;6.978;2022-12-04T03:52:40;13.75;;;9.10;;
39524;SDS011;25203;50.754;6.978;2022-12-04T03:54:48;14.93;;;9.77;;
39524;SDS011;25203;50.754;6.978;2022-12-04T03:57:07;18.45;;;10.57;;
39524;SDS011;25203;50.754;6.978;2022-12-04T03:59:19;15.07;;;9.48;;
39524;SDS011;25203;50.754;6.978;2022-12-04T04:01:27;14.55;;;9.77;;
39524;SDS011;25203;50.754;6.978;2022-12-04T04:26:51;16.45;;;9.98;;
39524;SDS011;25203;50.754;6.978;2022-12-04T04:28:53;15.32;;;9.07;;
39524;SDS011;25203;50.754;6.978;2022-12-04T04:39:05;16.17;;;8.82;;
39524;SDS011;25203;50.754;6.978;2022-12-04T04:44:25;16.73;;;9.50;;
39524;SDS011;25203;50.754;6.978;2022-12-04T04:46:36;16.08;;;9.02;;
39524;SDS011;25203;50.754;6.978;2022-12-04T04:48:41;14.50;;;9.85;;
39524;SDS011;25203;50.754;6.978;2022-12-04T04:50:55;18.55;;;10.38;;
39524;SDS011;25203;50.754;6.978;2022-12-04T04:55:55;13.95;;;8.00;;
39524;SDS011;25203;50.754;6.978;2022-12-04T04:58:04;15.02;;;9.20;;
39524;SDS011;25203;50.754;6.978;2022-12-04T05:00:11;16.42;;;9.95;;
39524;SDS011;25203;50.754;6.978;2022-12-04T05:02:14;17.70;;;11.00;;
39524;SDS011;25203;50.754;6.978;2022-12-04T05:04:14;15.88;;;9.95;;
39524;SDS011;25203;50.754;6.978;2022-12-04T05:06:15;14.88;;;9.77;;
39524;SDS011;25203;50.754;6.978;2022-12-04T05:08:15;16.73;;;9.30;;
39524;SDS011;25203;50.754;6.978;2022-12-04T05:10:16;16.95;;;10.57;;
39524;SDS011;25203;50.754;6.978;2022-12-04T05:12:26;15.85;;;10.40;;
39524;SDS011;25203;50.754;6.978;2022-12-04T05:14:26;15.50;;;9.32;;
39524;SDS011;25203;50.754;6.978;2022-12-04T05:16:27;16.95;;;9.77;;
39524;SDS011;25203;50.754;6.978;2022-12-04T05:18:28;15.20;;;9.55;;
39524;SDS011;25203;50.754;6.978;2022-12-04T05:20:29;18.92;;;10.82;;
39524;SDS011;25203;50.754;6.978;2022-12-04T05:25:36;16.37;;;10.57;;
39524;SDS011;25203;50.754;6.978;2022-12-04T05:27:37;18.67;;;11.02;;
39524;SDS011;25203;50.754;6.978;2022-12-04T05:29:38;16.70;;;10.25;;
39524;SDS011;25203;50.754;6.978;2022-12-04T05:44:01;16.33;;;10.77;;
39524;SDS011;25203;50.754;6.978;2022-12-04T05:46:03;17.13;;;10.68;;
39524;SDS011;25203;50.754;6.978;2022-12-04T05:48:05;16.33;;;9.55;;
39524;SDS011;25203;50.754;6.978;2022-12-04T05:50:15;14.90;;;9.70;;
39524;SDS011;25203;50.754;6.978;2022-12-04T05:52:16;17.83;;;9.88;;
39524;SDS011;25203;50.754;6.978;2022-12-04T05:54:17;15.98;;;9.68;;
39524;SDS011;25203;50.754;6.978;2022-12-04T05:56:18;16.67;;;9.75;;
39524;SDS011;25203;50.754;6.978;2022-12-04T05:58:20;16.00;;;9.73;;
39524;SDS011;25203;50.754;6.978;2022-12-04T06:00:20;14.07;;;9.55;;
39524;SDS011;25203;50.754;6.978;2022-12-04T06:02:21;13.63;;;8.65;;
39524;SDS011;25203;50.754;6.978;2022-12-04T06:04:22;16.08;;;9.13;;
39524;SDS011;25203;50.754;6.978;2022-12-04T06:06:23;13.10;;;8.88;;
39524;SDS011;25203;50.754;6.978;2022-12-04T06:23:09;14.75;;;9.30;;
39524;SDS011;25203;50.754;6.978;2022-12-04T06:25:09;14.48;;;9.40;;
39524;SDS011;25203;50.754;6.978;2022-12-04T06:38:58;20.17;;;9.15;;
39524;SDS011;25203;50.754;6.978;2022-12-04T06:41:01;14.90;;;9.48;;
39524;SDS011;25203;50.754;6.978;2022-12-04T06:46:10;13.20;;;8.40;;
39524;SDS011;25203;50.754;6.978;2022-12-04T06:48:15;15.75;;;9.00;;
39524;SDS011;25203;50.754;6.978;2022-12-04T06:50:16;15.70;;;9.27;;
39524;SDS011;25203;50.754;6.978;2022-12-04T06:58:23;15.13;;;9.32;;
39524;SDS011;25203;50.754;6.978;2022-12-04T07:09:16;15.70;;;8.83;;
39524;SDS011;25203;50.754;6.978;2022-12-04T07:22:38;15.73;;;9.95;;
39524;SDS011;25203;50.754;6.978;2022-12-04T07:24:38;15.57;;;10.05;;
39524;SDS011;25203;50.754;6.978;2022-12-04T07:38:27;17.90;;;10.73;;
39524;SDS011;25203;50.754;6.978;2022-12-04T07:40:28;18.38;;;11.40;;
39524;SDS011;25203;50.754;6.978;2022-12-04T07:57:14;17.92;;;10.50;;
39524;SDS011;25203;50.754;6.978;2022-12-04T07:59:14;17.63;;;11.15;;
39524;SDS011;25203;50.754;6.978;2022-12-04T08:01:20;18.98;;;11.38;;
39524;SDS011;25203;50.754;6.978;2022-12-04T08:03:31;19.88;;;11.55;;
39524;SDS011;25203;50.754;6.978;2022-12-04T08:05:31;19.17;;;11.40;;
39524;SDS011;25203;50.754;6.978;2022-12-04T08:07:32;19.30;;;11.38;;
39524;SDS011;25203;50.754;6.978;2022-12-04T08:09:32;19.10;;;10.90;;
39524;SDS011;25203;50.754;6.978;2022-12-04T08:11:33;20.13;;;12.05;;
39524;SDS011;25203;50.754;6.978;2022-12-04T08:13:44;17.33;;;11.10;;
39524;SDS011;25203;50.754;6.978;2022-12-04T08:15:45;19.75;;;11.60;;
39524;SDS011;25203;50.754;6.978;2022-12-04T08:29:05;19.42;;;11.63;;
39524;SDS011;25203;50.754;6.978;2022-12-04T08:31:07;19.63;;;12.70;;
39524;SDS011;25203;50.754;6.978;2022-12-04T08:36:15;18.00;;;10.37;;
39524;SDS011;25203;50.754;6.978;2022-12-04T08:38:18;18.77;;;12.32;;
39524;SDS011;25203;50.754;6.978;2022-12-04T08:40:18;18.92;;;11.35;;
39524;SDS011;25203;50.754;6.978;2022-12-04T08:50:05;20.48;;;11.68;;
39524;SDS011;25203;50.754;6.978;2022-12-04T08:54:56;18.23;;;11.30;;
39524;SDS011;25203;50.754;6.978;2022-12-04T08:56:56;20.10;;;11.73;;
39524;SDS011;25203;50.754;6.978;2022-12-04T09:05:04;21.33;;;11.98;;
39524;SDS011;25203;50.754;6.978;2022-12-04T09:07:05;18.05;;;11.10;;
39524;SDS011;25203;50.754;6.978;2022-12-04T09:09:05;19.63;;;12.48;;
39524;SDS011;25203;50.754;6.978;2022-12-04T09:14:12;18.75;;;12.68;;
39524;SDS011;25203;50.754;6.978;2022-12-04T09:16:14;17.42;;;11.82;;
39524;SDS011;25203;50.754;6.978;2022-12-04T09:18:16;18.65;;;11.48;;
39524;SDS011;25203;50.754;6.978;2022-12-04T09:20:17;19.33;;;12.15;;
39524;SDS011;25203;50.754;6.978;2022-12-04T09:25:24;18.95;;;11.65;;
39524;SDS011;25203;50.754;6.978;2022-12-04T09:27:25;18.02;;;11.35;;
39524;SDS011;25203;50.754;6.978;2022-12-04T09:29:25;17.02;;;10.73;;
39524;SDS011;25203;50.754;6.978;2022-12-04T09:34:23;20.60;;;13.02;;
39524;SDS011;25203;50.754;6.978;2022-12-04T09:36:23;19.20;;;12.02;;
39524;SDS011;25203;50.754;6.978;2022-12-04T09:56:08;19.10;;;11.75;;
39524;SDS011;25203;50.754;6.978;2022-12-04T09:58:16;18.35;;;10.43;;
39524;SDS011;25203;50.754;6.978;2022-12-04T10:00:23;19.88;;;12.32;;
39524;SDS011;25203;50.754;6.978;2022-12-04T10:04:46;18.65;;;11.82;;
39524;SDS011;25203;50.754;6.978;2022-12-04T10:25:58;17.10;;;10.55;;
39524;SDS011;25203;50.754;6.978;2022-12-04T10:30:32;18.27;;;11.00;;
39524;SDS011;25203;50.754;6.978;2022-12-04T10:32:35;16.98;;;10.55;;
39524;SDS011;25203;50.754;6.978;2022-12-04T10:34:36;18.23;;;11.52;;
39524;SDS011;25203;50.754;6.978;2022-12-04T10:36:49;20.00;;;12.38;;
39524;SDS011;25203;50.754;6.978;2022-12-04T10:45:57;16.27;;;10.32;;
39524;SDS011;25203;50.754;6.978;2022-12-04T10:47:58;18.58;;;11.07;;
39524;SDS011;25203;50.754;6.978;2022-12-04T10:50:00;17.70;;;11.20;;
39524;SDS011;25203;50.754;6.978;2022-12-04T10:52:12;19.98;;;11.70;;
39524;SDS011;25203;50.754;6.978;2022-12-04T10:56:22;17.98;;;11.57;;
39524;SDS011;25203;50.754;6.978;2022-12-04T10:58:24;17.67;;;11.70;;
39524;SDS011;25203;50.754;6.978;2022-12-04T11:00:30;15.45;;;10.55;;
39524;SDS011;25203;50.754;6.978;2022-12-04T11:02:33;19.02;;;11.77;;
39524;SDS011;25203;50.754;6.978;2022-12-04T11:04:36;16.23;;;10.20;;
39524;SDS011;25203;50.754;6.978;2022-12-04T11:06:39;17.88;;;11.55;;
39524;SDS011;25203;50.754;6.978;2022-12-04T11:08:43;18.23;;;11.07;;
39524;SDS011;25203;50.754;6.978;2022-12-04T11:11:08;16.38;;;11.00;;
39524;SDS011;25203;50.754;6.978;2022-12-04T11:16:09;18.33;;;10.75;;
39524;SDS011;25203;50.754;6.978;2022-12-04T11:18:48;17.65;;;10.60;;
39524;SDS011;25203;50.754;6.978;2022-12-04T11:27:58;16.48;;;10.43;;
39524;SDS011;25203;50.754;6.978;2022-12-04T11:30:01;20.30;;;12.63;;
39524;SDS011;25203;50.754;6.978;2022-12-04T11:32:16;19.45;;;11.80;;
39524;SDS011;25203;50.754;6.978;2022-12-04T11:34:34;20.85;;;12.25;;
39524;SDS011;25203;50.754;6.978;2022-12-04T11:36:38;20.30;;;12.30;;
39524;SDS011;25203;50.754;6.978;2022-12-04T11:38:40;18.65;;;11.55;;
39524;SDS011;25203;50.754;6.978;2022-12-04T11:40:48;18.33;;;11.77;;
39524;SDS011;25203;50.754;6.978;2022-12-04T11:45:21;21.25;;;12.82;;
39524;SDS011;25203;50.754;6.978;2022-12-04T11:47:24;18.55;;;10.82;;
39524;SDS011;25203;50.754;6.978;2022-12-04T11:49:35;17.50;;;10.65;;
39524;SDS011;25203;50.754;6.978;2022-12-04T11:51:43;16.33;;;10.75;;
39524;SDS011;25203;50.754;6.978;2022-12-04T11:57:00;17.77;;;10.77;;
39524;SDS011;25203;50.754;6.978;2022-12-04T12:05:05;18.10;;;10.13;;
39524;SDS011;25203;50.754;6.978;2022-12-04T12:15:17;17.52;;;10.45;;
39524;SDS011;25203;50.754;6.978;2022-12-04T12:19:59;17.40;;;11.23;;
39524;SDS011;25203;50.754;6.978;2022-12-04T12:24:29;20.40;;;11.93;;
39524;SDS011;25203;50.754;6.978;2022-12-04T12:26:44;19.48;;;12.10;;
39524;SDS011;25203;50.754;6.978;2022-12-04T12:33:42;18.83;;;12.93;;
39524;SDS011;25203;50.754;6.978;2022-12-04T12:35:54;22.83;;;13.20;;
39524;SDS011;25203;50.754;6.978;2022-12-04T12:38:09;20.58;;;12.73;;
39524;SDS011;25203;50.754;6.978;2022-12-04T12:40:14;21.48;;;12.57;;
39524;SDS011;25203;50.754;6.978;2022-12-04T12:42:47;20.08;;;11.77;;
39524;SDS011;25203;50.754;6.978;2022-12-04T12:47:44;19.13;;;11.35;;
39524;SDS011;25203;50.754;6.978;2022-12-04T12:49:51;17.85;;;10.75;;
39524;SDS011;25203;50.754;6.978;2022-12-04T13:01:15;21.77;;;11.18;;
39524;SDS011;25203;50.754;6.978;2022-12-04T13:03:56;21.55;;;12.75;;
39524;SDS011;25203;50.754;6.978;2022-12-04T13:06:04;19.88;;;11.68;;
39524;SDS011;25203;50.754;6.978;2022-12-04T13:08:22;19.10;;;11.65;;
39524;SDS011;25203;50.754;6.978;2022-12-04T13:10:34;22.05;;;11.55;;
39524;SDS011;25203;50.754;6.978;2022-12-04T13:12:55;18.67;;;10.65;;
39524;SDS011;25203;50.754;6.978;2022-12-04T13:17:56;20.08;;;12.07;;
39524;SDS011;25203;50.754;6.978;2022-12-04T13:19:57;19.20;;;11.40;;
39524;SDS011;25203;50.754;6.978;2022-12-04T13:39:34;22.27;;;12.00;;
39524;SDS011;25203;50.754;6.978;2022-12-04T13:41:54;19.50;;;11.68;;
39524;SDS011;25203;50.754;6.978;2022-12-04T13:47:06;18.67;;;11.10;;
39524;SDS011;25203;50.754;6.978;2022-12-04T13:53:42;20.63;;;10.68;;
39524;SDS011;25203;50.754;6.978;2022-12-04T13:55:43;18.80;;;10.75;;
39524;SDS011;25203;50.754;6.978;2022-12-04T13:58:00;19.40;;;11.57;;
39524;SDS011;25203;50.754;6.978;2022-12-04T14:00:24;22.58;;;11.65;;
39524;SDS011;25203;50.754;6.978;2022-12-04T14:02:33;22.40;;;11.43;;
39524;SDS011;25203;50.754;6.978;2022-12-04T14:10:05;21.95;;;10.88;;
39524;SDS011;25203;50.754;6.978;2022-12-04T14:12:28;22.15;;;12.73;;
39524;SDS011;25203;50.754;6.978;2022-12-04T14:17:32;22.48;;;12.30;;
39524;SDS011;25203;50.754;6.978;2022-12-04T14:19:35;22.95;;;13.88;;
39524;SDS011;25203;50.754;6.978;2022-12-04T14:21:45;23.05;;;12.98;;
39524;SDS011;25203;50.754;6.978;2022-12-04T14:23:55;20.42;;;12.35;;
39524;SDS011;25203;50.754;6.978;2022-12-04T14:25:56;21.45;;;12.25;;
39524;SDS011;25203;50.754;6.978;2022-12-04T14:27:57;22.90;;;11.98;;
39524;SDS011;25203;50.754;6.978;2022-12-04T14:29:58;22.92;;;12.70;;
39524;SDS011;25203;50.754;6.978;2022-12-04T14:32:05;25.23;;;13.05;;
39524;SDS011;25203;50.754;6.978;2022-12-04T14:34:20;23.65;;;12.77;;
39524;SDS011;25203;50.754;6.978;2022-12-04T14:36:32;23.90;;;13.25;;
39524;SDS011;25203;50.754;6.978;2022-12-04T14:38:39;23.13;;;13.05;;
39524;SDS011;25203;50.754;6.978;2022-12-04T14:40:48;25.38;;;14.38;;
39524;SDS011;25203;50.754;6.978;2022-12-04T14:42:51;23.58;;;13.18;;
39524;SDS011;25203;50.754;6.978;2022-12-04T14:59:53;23.50;;;14.00;;
39524;SDS011;25203;50.754;6.978;2022-12-04T15:01:54;22.13;;;12.90;;
39524;SDS011;25203;50.754;6.978;2022-12-04T15:03:57;25.10;;;14.30;;
39524;SDS011;25203;50.754;6.978;2022-12-04T15:06:06;24.95;;;13.80;;
39524;SDS011;25203;50.754;6.978;2022-12-04T15:08:12;26.70;;;14.32;;
39524;SDS011;25203;50.754;6.978;2022-12-04T15:10:27;28.02;;;15.57;;
39524;SDS011;25203;50.754;6.978;2022-12-04T15:12:49;27.95;;;14.85;;
39524;SDS011;25203;50.754;6.978;2022-12-04T15:23:44;26.02;;;13.30;;
39524;SDS011;25203;50.754;6.978;2022-12-04T15:25:49;25.85;;;13.95;;
39524;SDS011;25203;50.754;6.978;2022-12-04T15:27:59;24.83;;;14.13;;
39524;SDS011;25203;50.754;6.978;2022-12-04T15:32:52;24.95;;;13.18;;
39524;SDS011;25203;50.754;6.978;2022-12-04T15:34:54;25.20;;;13.95;;
39524;SDS011;25203;50.754;6.978;2022-12-04T15:37:00;25.40;;;14.75;;
39524;SDS011;25203;50.754;6.978;2022-12-04T15:39:06;30.13;;;14.80;;
39524;SDS011;25203;50.754;6.978;2022-12-04T15:43:37;28.45;;;16.73;;
39524;SDS011;25203;50.754;6.978;2022-12-04T15:48:34;26.08;;;14.13;;
39524;SDS011;25203;50.754;6.978;2022-12-04T15:50:34;24.10;;;14.52;;
39524;SDS011;25203;50.754;6.978;2022-12-04T15:54:54;29.15;;;15.38;;
39524;SDS011;25203;50.754;6.978;2022-12-04T15:56:59;25.48;;;15.55;;
39524;SDS011;25203;50.754;6.978;2022-12-04T15:59:01;29.25;;;16.02;;
39524;SDS011;25203;50.754;6.978;2022-12-04T16:01:04;28.13;;;16.30;;
39524;SDS011;25203;50.754;6.978;2022-12-04T16:03:20;30.08;;;16.73;;
39524;SDS011;25203;50.754;6.978;2022-12-04T16:05:32;29.42;;;16.13;;
39524;SDS011;25203;50.754;6.978;2022-12-04T16:07:46;29.77;;;17.90;;
39524;SDS011;25203;50.754;6.978;2022-12-04T16:12:55;27.80;;;16.83;;
39524;SDS011;25203;50.754;6.978;2022-12-04T16:15:06;30.27;;;16.27;;
39524;SDS011;25203;50.754;6.978;2022-12-04T16:17:08;25.23;;;14.40;;
39524;SDS011;25203;50.754;6.978;2022-12-04T16:19:20;25.88;;;15.35;;
39524;SDS011;25203;50.754;6.978;2022-12-04T16:24:25;28.17;;;15.98;;
39524;SDS011;25203;50.754;6.978;2022-12-04T16:26:26;31.50;;;17.25;;
39524;SDS011;25203;50.754;6.978;2022-12-04T16:28:27;29.88;;;17.50;;
39524;SDS011;25203;50.754;6.978;2022-12-04T16:30:29;28.30;;;16.50;;
39524;SDS011;25203;50.754;6.978;2022-12-04T16:35:01;28.50;;;15.98;;
39524;SDS011;25203;50.754;6.978;2022-12-04T16:37:05;28.17;;;15.73;;
39524;SDS011;25203;50.754;6.978;2022-12-04T16:39:23;34.40;;;17.10;;
39524;SDS011;25203;50.754;6.978;2022-12-04T16:41:23;29.25;;;17.00;;
39524;SDS011;25203;50.754;6.978;2022-12-04T16:43:33;33.67;;;16.25;;
39524;SDS011;25203;50.754;6.978;2022-12-04T16:48:14;28.63;;;16.50;;
39524;SDS011;25203;50.754;6.978;2022-12-04T16:50:15;30.90;;;17.23;;
39524;SDS011;25203;50.754;6.978;2022-12-04T16:52:16;26.10;;;15.45;;
39524;SDS011;25203;50.754;6.978;2022-12-04T16:54:18;30.60;;;16.63;;
39524;SDS011;25203;50.754;6.978;2022-12-04T16:56:18;32.70;;;17.67;;
39524;SDS011;25203;50.754;6.978;2022-12-04T16:58:28;33.03;;;16.38;;
39524;SDS011;25203;50.754;6.978;2022-12-04T17:00:29;36.35;;;18.35;;
39524;SDS011;25203;50.754;6.978;2022-12-04T17:02:30;28.23;;;16.05;;
39524;SDS011;25203;50.754;6.978;2022-12-04T17:04:31;30.23;;;16.48;;
39524;SDS011;25203;50.754;6.978;2022-12-04T17:06:31;31.10;;;17.33;;
39524;SDS011;25203;50.754;6.978;2022-12-04T17:08:32;31.50;;;16.10;;
39524;SDS011;25203;50.754;6.978;2022-12-04T17:10:33;29.98;;;16.73;;
39524;SDS011;25203;50.754;6.978;2022-12-04T17:12:33;29.40;;;17.73;;
39524;SDS011;25203;50.754;6.978;2022-12-04T17:20:28;28.77;;;17.13;;
39524;SDS011;25203;50.754;6.978;2022-12-04T17:22:30;34.92;;;18.85;;
39524;SDS011;25203;50.754;6.978;2022-12-04T17:24:40;37.63;;;18.38;;
39524;SDS011;25203;50.754;6.978;2022-12-04T17:26:40;29.77;;;16.25;;
39524;SDS011;25203;50.754;6.978;2022-12-04T17:28:41;27.90;;;16.63;;
39524;SDS011;25203;50.754;6.978;2022-12-04T17:33:48;27.90;;;15.38;;
39524;SDS011;25203;50.754;6.978;2022-12-04T17:35:48;30.02;;;16.63;;
39524;SDS011;25203;50.754;6.978;2022-12-04T17:37:49;30.70;;;17.05;;
39524;SDS011;25203;50.754;6.978;2022-12-04T17:39:59;29.23;;;15.35;;
39524;SDS011;25203;50.754;6.978;2022-12-04T17:42:00;31.70;;;17.42;;
39524;SDS011;25203;50.754;6.978;2022-12-04T17:44:00;31.15;;;17.98;;
39524;SDS011;25203;50.754;6.978;2022-12-04T17:46:11;32.95;;;18.20;;
39524;SDS011;25203;50.754;6.978;2022-12-04T17:48:13;35.30;;;19.55;;
39524;SDS011;25203;50.754;6.978;2022-12-04T17:50:14;32.65;;;18.23;;
39524;SDS011;25203;50.754;6.978;2022-12-04T17:55:02;29.48;;;16.95;;
39524;SDS011;25203;50.754;6.978;2022-12-04T17:57:03;31.83;;;17.02;;
39524;SDS011;25203;50.754;6.978;2022-12-04T17:59:13;28.13;;;15.90;;
39524;SDS011;25203;50.754;6.978;2022-12-04T18:01:17;40.22;;;20.52;;
39524;SDS011;25203;50.754;6.978;2022-12-04T18:03:22;29.75;;;16.38;;
39524;SDS011;25203;50.754;6.978;2022-12-04T18:08:29;33.80;;;17.67;;
39524;SDS011;25203;50.754;6.978;2022-12-04T18:10:29;29.13;;;17.77;;
39524;SDS011;25203;50.754;6.978;2022-12-04T18:12:30;33.60;;;18.73;;
39524;SDS011;25203;50.754;6.978;2022-12-04T18:14:30;35.40;;;19.20;;
39524;SDS011;25203;50.754;6.978;2022-12-04T18:16:43;33.63;;;18.02;;
39524;SDS011;25203;50.754;6.978;2022-12-04T18:18:45;36.53;;;20.20;;
39524;SDS011;25203;50.754;6.978;2022-12-04T18:20:46;38.10;;;19.80;;
39524;SDS011;25203;50.754;6.978;2022-12-04T18:22:47;35.88;;;18.42;;
39524;SDS011;25203;50.754;6.978;2022-12-04T18:24:47;37.50;;;18.40;;
39524;SDS011;25203;50.754;6.978;2022-12-04T18:26:48;34.55;;;18.45;;
39524;SDS011;25203;50.754;6.978;2022-12-04T18:28:50;30.40;;;16.83;;
39524;SDS011;25203;50.754;6.978;2022-12-04T18:30:51;34.85;;;19.92;;
39524;SDS011;25203;50.754;6.978;2022-12-04T18:38:46;35.10;;;19.40;;
39524;SDS011;25203;50.754;6.978;2022-12-04T18:40:51;37.75;;;20.88;;
39524;SDS011;25203;50.754;6.978;2022-12-04T18:42:53;40.13;;;20.60;;
39524;SDS011;25203;50.754;6.978;2022-12-04T18:47:31;38.08;;;19.30;;
39524;SDS011;25203;50.754;6.978;2022-12-04T18:49:32;36.58;;;19.77;;
39524;SDS011;25203;50.754;6.978;2022-12-04T18:51:50;35.65;;;20.00;;
39524;SDS011;25203;50.754;6.978;2022-12-04T18:53:52;38.63;;;19.75;;
39524;SDS011;25203;50.754;6.978;2022-12-04T18:55:54;37.90;;;18.98;;
39524;SDS011;25203;50.754;6.978;2022-12-04T18:58:00;34.95;;;20.02;;
39524;SDS011;25203;50.754;6.978;2022-12-04T19:00:10;34.70;;;19.08;;
39524;SDS011;25203;50.754;6.978;2022-12-04T19:02:31;33.08;;;18.70;;
39524;SDS011;25203;50.754;6.978;2022-12-04T19:04:32;33.55;;;18.55;;
39524;SDS011;25203;50.754;6.978;2022-12-04T19:06:34;46.42;;;26.08;;
39524;SDS011;25203;50.754;6.978;2022-12-04T19:08:37;63.65;;;32.63;;
39524;SDS011;25203;50.754;6.978;2022-12-04T19:10:39;48.15;;;25.65;;
39524;SDS011;25203;50.754;6.978;2022-12-04T19:12:39;42.33;;;22.85;;
39524;SDS011;25203;50.754;6.978;2022-12-04T19:14:40;44.55;;;22.55;;
39524;SDS011;25203;50.754;6.978;2022-12-04T19:16:50;39.50;;;22.23;;
39524;SDS011;25203;50.754;6.978;2022-12-04T19:18:51;44.25;;;23.85;;
39524;SDS011;25203;50.754;6.978;2022-12-04T19:23:33;57.80;;;27.25;;
39524;SDS011;25203;50.754;6.978;2022-12-04T19:25:33;49.90;;;26.05;;
39524;SDS011;25203;50.754;6.978;2022-12-04T19:30:31;37.47;;;20.65;;
39524;SDS011;25203;50.754;6.978;2022-12-04T19:32:32;36.92;;;20.15;;
39524;SDS011;25203;50.754;6.978;2022-12-04T19:34:42;37.00;;;20.90;;
39524;SDS011;25203;50.754;6.978;2022-12-04T19:36:43;32.33;;;18.85;;
39524;SDS011;25203;50.754;6.978;2022-12-04T19:38:44;40.00;;;20.33;;
39524;SDS011;25203;50.754;6.978;2022-12-04T19:40:45;33.00;;;18.15;;
39524;SDS011;25203;50.754;6.978;2022-12-04T19:42:46;33.55;;;18.42;;
39524;SDS011;25203;50.754;6.978;2022-12-04T19:44:47;32.40;;;17.45;;
39524;SDS011;25203;50.754;6.978;2022-12-04T19:46:56;35.72;;;19.42;;
39524;SDS011;25203;50.754;6.978;2022-12-04T19:48:58;37.95;;;19.77;;
39524;SDS011;25203;50.754;6.978;2022-12-04T19:51:03;38.13;;;19.13;;
39524;SDS011;25203;50.754;6.978;2022-12-04T19:53:24;37.63;;;20.52;;
39524;SDS011;25203;50.754;6.978;2022-12-04T19:55:25;36.70;;;19.48;;
39524;SDS011;25203;50.754;6.978;2022-12-04T19:57:25;42.03;;;20.95;;
39524;SDS011;25203;50.754;6.978;2022-12-04T19:59:26;38.40;;;21.02;;
39524;SDS011;25203;50.754;6.978;2022-12-04T20:01:26;44.78;;;20.23;;
39524;SDS011;25203;50.754;6.978;2022-12-04T20:08:56;41.03;;;22.35;;
39524;SDS011;25203;50.754;6.978;2022-12-04T20:11:02;41.92;;;22.33;;
39524;SDS011;25203;50.754;6.978;2022-12-04T20:13:10;44.10;;;23.02;;
39524;SDS011;25203;50.754;6.978;2022-12-04T20:15:11;41.00;;;22.80;;
39524;SDS011;25203;50.754;6.978;2022-12-04T20:17:21;41.25;;;22.17;;
39524;SDS011;25203;50.754;6.978;2022-12-04T20:19:22;42.58;;;22.55;;
39524;SDS011;25203;50.754;6.978;2022-12-04T20:21:22;39.30;;;20.27;;
39524;SDS011;25203;50.754;6.978;2022-12-04T20:23:27;36.03;;;21.15;;
39524;SDS011;25203;50.754;6.978;2022-12-04T20:25:37;37.40;;;22.35;;
39524;SDS011;25203;50.754;6.978;2022-12-04T20:27:37;41.50;;;22.02;;
39524;SDS011;25203;50.754;6.978;2022-12-04T20:29:38;45.90;;;24.42;;
39524;SDS011;25203;50.754;6.978;2022-12-04T20:31:39;42.92;;;22.25;;
39524;SDS011;25203;50.754;6.978;2022-12-04T20:33:42;41.65;;;21.55;;
39524;SDS011;25203;50.754;6.978;2022-12-04T20:35:44;43.60;;;22.83;;
39524;SDS011;25203;50.754;6.978;2022-12-04T20:37:44;44.72;;;24.35;;
39524;SDS011;25203;50.754;6.978;2022-12-04T20:39:45;43.65;;;25.15;;
39524;SDS011;25203;50.754;6.978;2022-12-04T20:44:17;43.63;;;23.42;;
39524;SDS011;25203;50.754;6.978;2022-12-04T20:49:07;39.00;;;22.42;;
39524;SDS011;25203;50.754;6.978;2022-12-04T20:54:07;43.30;;;23.30;;